sensor_id;sensor_type;location;lat;lon;timestamp;pressure;altitude;pressure_sealevel;temperature;humidity
49945;BME280;35838;49.134;9.212;2023-05-01T00:00:17;99881.88;;;11.99;100.00
49945;BME280;35838;49.134;9.212;2023-05-01T00:01:51;99882.78;;;11.98;100.00
49945;BME280;35838;49.134;9.212;2023-05-01T00:03:25;99879.25;;;12.04;100.00
49945;BME280;35838;49.134;9.212;2023-05-01T00:05:01;99868.81;;;12.07;100.00
49945;BME280;35838;49.134;9.212;2023-05-01T00:06:35;99866.25;;;12.05;100.00
49945;BME280;35838;49.134;9.212;2023-05-01T00:08:08;99870.63;;;12.02;100.00
49945;BME280;35838;49.134;9.212;2023-05-01T00:09:42;99869.75;;;12.03;100.00
49945;BME280;35838;49.134;9.212;2023-05-01T00:11:16;99867.19;;;11.94;100.00
49945;BME280;35838;49.134;9.212;2023-05-01T00:12:49;99861.97;;;11.98;100.00
49945;BME280;35838;49.134;9.212;2023-05-01T00:14:23;99861.97;;;11.98;100.00
49945;BME280;35838;49.134;9.212;2023-05-01T00:15:57;99859.34;;;12.00;100.00
49945;BME280;35838;49.134;9.212;2023-05-01T00:17:30;99857.66;;;11.93;100.00
49945;BME280;35838;49.134;9.212;2023-05-01T00:19:04;99853.28;;;11.95;100.00
49945;BME280;35838;49.134;9.212;2023-05-01T00:20:40;99848.09;;;11.98;100.00
49945;BME280;35838;49.134;9.212;2023-05-01T00:22:14;99844.63;;;11.99;100.00
49945;BME280;35838;49.134;9.212;2023-05-01T00:23:47;99836.84;;;11.94;100.00
49945;BME280;35838;49.134;9.212;2023-05-01T00:25:21;99840.34;;;11.91;100.00
49945;BME280;35838;49.134;9.212;2023-05-01T00:26:55;99846.47;;;11.86;100.00
49945;BME280;35838;49.134;9.212;2023-05-01T00:28:28;99848.16;;;11.88;100.00
49945;BME280;35838;49.134;9.212;2023-05-01T00:30:02;99835.13;;;11.91;100.00
49945;BME280;35838;49.134;9.212;2023-05-01T00:31:33;99841.16;;;11.95;100.00
49945;BME280;35838;49.134;9.212;2023-05-01T00:33:07;99829.00;;;11.96;100.00
49945;BME280;35838;49.134;9.212;2023-05-01T00:34:40;99838.56;;;11.98;100.00
49945;BME280;35838;49.134;9.212;2023-05-01T00:36:18;99829.00;;;11.96;100.00
49945;BME280;35838;49.134;9.212;2023-05-01T00:37:51;99829.88;;;11.98;100.00
49945;BME280;35838;49.134;9.212;2023-05-01T00:39:25;99828.13;;;11.97;100.00
49945;BME280;35838;49.134;9.212;2023-05-01T00:40:59;99818.63;;;11.99;100.00
49945;BME280;35838;49.134;9.212;2023-05-01T00:42:33;99821.22;;;11.96;100.00
49945;BME280;35838;49.134;9.212;2023-05-01T00:44:06;99818.66;;;11.91;100.00
49945;BME280;35838;49.134;9.212;2023-05-01T00:45:41;99819.53;;;11.91;100.00
49945;BME280;35838;49.134;9.212;2023-05-01T00:47:15;99815.22;;;11.89;100.00
49945;BME280;35838;49.134;9.212;2023-05-01T00:48:50;99813.41;;;11.99;100.00
49945;BME280;35838;49.134;9.212;2023-05-01T00:50:24;99810.72;;;12.05;100.00
49945;BME280;35838;49.134;9.212;2023-05-01T00:51:57;99809.78;;;12.14;100.00
49945;BME280;35838;49.134;9.212;2023-05-01T00:53:32;99804.53;;;12.15;100.00
49945;BME280;35838;49.134;9.212;2023-05-01T00:55:06;99806.31;;;12.13;100.00
49945;BME280;35838;49.134;9.212;2023-05-01T00:56:40;99801.94;;;12.15;100.00
49945;BME280;35838;49.134;9.212;2023-05-01T00:58:13;99803.81;;;12.05;100.00
49945;BME280;35838;49.134;9.212;2023-05-01T00:59:49;99797.72;;;12.05;100.00
49945;BME280;35838;49.134;9.212;2023-05-01T01:01:22;99793.44;;;11.99;100.00
49945;BME280;35838;49.134;9.212;2023-05-01T01:02:56;99791.72;;;12.00;100.00
49945;BME280;35838;49.134;9.212;2023-05-01T01:04:30;99790.88;;;11.98;100.00
49945;BME280;35838;49.134;9.212;2023-05-01T01:06:06;99790.88;;;11.98;100.00
49945;BME280;35838;49.134;9.212;2023-05-01T01:07:44;99790.88;;;11.98;100.00
49945;BME280;35838;49.134;9.212;2023-05-01T01:09:25;99780.44;;;12.01;100.00
49945;BME280;35838;49.134;9.212;2023-05-01T01:11:07;99788.16;;;12.07;100.00
49945;BME280;35838;49.134;9.212;2023-05-01T01:12:48;99782.06;;;12.11;100.00
49945;BME280;35838;49.134;9.212;2023-05-01T01:14:25;99789.81;;;12.14;100.00
49945;BME280;35838;49.134;9.212;2023-05-01T01:16:04;99782.88;;;12.15;100.00
49945;BME280;35838;49.134;9.212;2023-05-01T01:17:43;99784.66;;;12.11;100.00
49945;BME280;35838;49.134;9.212;2023-05-01T01:19:28;99772.41;;;12.18;100.00
49945;BME280;35838;49.134;9.212;2023-05-01T01:21:07;99780.34;;;12.10;100.00
49945;BME280;35838;49.134;9.212;2023-05-01T01:22:49;99788.19;;;12.05;100.00
49945;BME280;35838;49.134;9.212;2023-05-01T01:26:16;99784.84;;;11.97;100.00
49945;BME280;35838;49.134;9.212;2023-05-01T01:28:03;99788.34;;;11.90;100.00
49945;BME280;35838;49.134;9.212;2023-05-01T01:29:47;99790.06;;;11.93;100.00
49945;BME280;35838;49.134;9.212;2023-05-01T01:31:27;99785.66;;;11.99;100.00
49945;BME280;35838;49.134;9.212;2023-05-01T01:34:53;99781.25;;;12.07;100.00
49945;BME280;35838;49.134;9.212;2023-05-01T01:36:33;99779.47;;;12.11;100.00
49945;BME280;35838;49.134;9.212;2023-05-01T01:38:11;99783.81;;;12.09;100.00
49945;BME280;35838;49.134;9.212;2023-05-01T01:39:55;99785.56;;;12.07;100.00
49945;BME280;35838;49.134;9.212;2023-05-01T01:41:33;99789.03;;;12.06;100.00
49945;BME280;35838;49.134;9.212;2023-05-01T01:43:07;99780.47;;;11.95;100.00
49945;BME280;35838;49.134;9.212;2023-05-01T01:44:46;99785.66;;;11.95;100.00
49945;BME280;35838;49.134;9.212;2023-05-01T01:46:20;99783.13;;;11.91;100.00
49945;BME280;35838;49.134;9.212;2023-05-01T01:47:55;99781.41;;;11.90;100.00
49945;BME280;35838;49.134;9.212;2023-05-01T01:49:29;99780.66;;;11.79;100.00
49945;BME280;35838;49.134;9.212;2023-05-01T01:51:07;99779.75;;;11.82;100.00
49945;BME280;35838;49.134;9.212;2023-05-01T01:52:41;99785.84;;;11.79;100.00
49945;BME280;35838;49.134;9.212;2023-05-01T01:54:17;99778.97;;;11.75;100.00
49945;BME280;35838;49.134;9.212;2023-05-01T01:55:51;99782.38;;;11.80;100.00
49945;BME280;35838;49.134;9.212;2023-05-01T01:57:27;99780.69;;;11.76;100.00
49945;BME280;35838;49.134;9.212;2023-05-01T01:59:01;99781.56;;;11.73;100.00
49945;BME280;35838;49.134;9.212;2023-05-01T02:00:34;99780.72;;;11.73;100.00
49945;BME280;35838;49.134;9.212;2023-05-01T02:03:58;99787.88;;;11.51;100.00
49945;BME280;35838;49.134;9.212;2023-05-01T02:05:32;99787.34;;;11.11;100.00
49945;BME280;35838;49.134;9.212;2023-05-01T02:07:06;99792.56;;;11.10;100.00
49945;BME280;35838;49.134;9.212;2023-05-01T02:08:41;99790.81;;;11.12;100.00
49945;BME280;35838;49.134;9.212;2023-05-01T02:10:13;99789.91;;;11.16;100.00
49945;BME280;35838;49.134;9.212;2023-05-01T02:11:47;99795.25;;;10.97;100.00
49945;BME280;35838;49.134;9.212;2023-05-01T02:13:22;99790.06;;;10.97;100.00
49945;BME280;35838;49.134;9.212;2023-05-01T02:14:56;99795.22;;;11.04;100.00
49945;BME280;35838;49.134;9.212;2023-05-01T02:16:31;99798.63;;;11.09;100.00
49945;BME280;35838;49.134;9.212;2023-05-01T02:18:05;99793.38;;;11.15;100.00
49945;BME280;35838;49.134;9.212;2023-05-01T02:19:39;99790.00;;;11.05;100.00
49945;BME280;35838;49.134;9.212;2023-05-01T02:21:14;99799.50;;;11.08;100.00
49945;BME280;35838;49.134;9.212;2023-05-01T02:22:49;99802.09;;;11.11;100.00
49945;BME280;35838;49.134;9.212;2023-05-01T02:24:24;99798.69;;;11.06;100.00
49945;BME280;35838;49.134;9.212;2023-05-01T02:25:57;99804.75;;;10.98;100.00
49945;BME280;35838;49.134;9.212;2023-05-01T02:27:33;99805.72;;;10.88;100.00
49945;BME280;35838;49.134;9.212;2023-05-01T02:29:08;99810.94;;;10.82;100.00
49945;BME280;35838;49.134;9.212;2023-05-01T02:30:42;99810.19;;;10.68;100.00
49945;BME280;35838;49.134;9.212;2023-05-01T02:32:16;99808.44;;;10.70;100.00
49945;BME280;35838;49.134;9.212;2023-05-01T02:33:47;99804.94;;;10.77;100.00
49945;BME280;35838;49.134;9.212;2023-05-01T02:35:21;99807.53;;;10.74;100.00
49945;BME280;35838;49.134;9.212;2023-05-01T02:36:55;99804.94;;;10.74;100.00
49945;BME280;35838;49.134;9.212;2023-05-01T02:38:31;99803.16;;;10.82;100.00
49945;BME280;35838;49.134;9.212;2023-05-01T02:40:05;99803.19;;;10.79;100.00
49945;BME280;35838;49.134;9.212;2023-05-01T02:41:39;99800.53;;;10.85;100.00
49945;BME280;35838;49.134;9.212;2023-05-01T02:43:15;99797.03;;;10.89;100.00
49945;BME280;35838;49.134;9.212;2023-05-01T02:44:51;99791.88;;;10.88;100.00
49945;BME280;35838;49.134;9.212;2023-05-01T02:46:26;99791.00;;;10.86;100.00
49945;BME280;35838;49.134;9.212;2023-05-01T02:48:00;99789.31;;;10.81;100.00
49945;BME280;35838;49.134;9.212;2023-05-01T02:49:34;99792.88;;;10.66;100.00
49945;BME280;35838;49.134;9.212;2023-05-01T02:51:09;99790.22;;;10.79;100.00
49945;BME280;35838;49.134;9.212;2023-05-01T02:52:43;99785.03;;;10.76;100.00
49945;BME280;35838;49.134;9.212;2023-05-01T02:54:19;99791.06;;;10.82;100.00
49945;BME280;35838;49.134;9.212;2023-05-01T02:55:50;99782.38;;;10.85;100.00
49945;BME280;35838;49.134;9.212;2023-05-01T02:57:24;99786.72;;;10.80;100.00
49945;BME280;35838;49.134;9.212;2023-05-01T02:58:58;99785.88;;;10.78;100.00
49945;BME280;35838;49.134;9.212;2023-05-01T03:00:29;99782.44;;;10.73;100.00
49945;BME280;35838;49.134;9.212;2023-05-01T03:02:02;99774.66;;;10.74;100.00
49945;BME280;35838;49.134;9.212;2023-05-01T03:03:37;99778.09;;;10.75;100.00
49945;BME280;35838;49.134;9.212;2023-05-01T03:05:10;99778.16;;;10.69;100.00
49945;BME280;35838;49.134;9.212;2023-05-01T03:06:41;99777.28;;;10.71;100.00
49945;BME280;35838;49.134;9.212;2023-05-01T03:08:15;99775.50;;;10.78;100.00
49945;BME280;35838;49.134;9.212;2023-05-01T03:09:51;99781.50;;;10.83;100.00
49945;BME280;35838;49.134;9.212;2023-05-01T03:11:25;99779.03;;;10.71;100.00
49945;BME280;35838;49.134;9.212;2023-05-01T03:21:22;99778.19;;;10.62;100.00
49945;BME280;35838;49.134;9.212;2023-05-01T03:29:20;99776.44;;;10.64;100.00
49945;BME280;35838;49.134;9.212;2023-05-01T03:31:01;99780.78;;;10.61;100.00
49945;BME280;35838;49.134;9.212;2023-05-01T03:32:32;99774.72;;;10.65;100.00
49945;BME280;35838;49.134;9.212;2023-05-01T03:34:06;99770.38;;;10.67;100.00
49945;BME280;35838;49.134;9.212;2023-05-01T03:35:40;99774.69;;;10.70;100.00
49945;BME280;35838;49.134;9.212;2023-05-01T03:37:13;99766.91;;;10.68;100.00
49945;BME280;35838;49.134;9.212;2023-05-01T03:38:47;99771.19;;;10.74;100.00
49945;BME280;35838;49.134;9.212;2023-05-01T03:40:21;99770.38;;;10.67;100.00
49945;BME280;35838;49.134;9.212;2023-05-01T03:41:52;99773.81;;;10.72;100.00
49945;BME280;35838;49.134;9.212;2023-05-01T03:43:25;99766.84;;;10.79;100.00
49945;BME280;35838;49.134;9.212;2023-05-01T03:45:02;99764.25;;;10.76;100.00
49945;BME280;35838;49.134;9.212;2023-05-01T03:46:35;99762.53;;;10.78;100.00
49945;BME280;35838;49.134;9.212;2023-05-01T03:48:06;99759.06;;;10.79;100.00
49945;BME280;35838;49.134;9.212;2023-05-01T03:49:40;99759.06;;;10.79;100.00
49945;BME280;35838;49.134;9.212;2023-05-01T03:51:14;99760.81;;;10.74;100.00
49945;BME280;35838;49.134;9.212;2023-05-01T03:52:48;99761.72;;;10.70;100.00
49945;BME280;35838;49.134;9.212;2023-05-01T03:54:21;99753.91;;;10.68;100.00
49945;BME280;35838;49.134;9.212;2023-05-01T03:55:53;99751.34;;;10.63;100.00
49945;BME280;35838;49.134;9.212;2023-05-01T03:57:26;99745.28;;;10.71;100.00
49945;BME280;35838;49.134;9.212;2023-05-01T03:58:58;99751.31;;;10.71;100.00
49945;BME280;35838;49.134;9.212;2023-05-01T04:00:35;99745.19;;;10.80;100.00
49945;BME280;35838;49.134;9.212;2023-05-01T04:02:08;99732.22;;;10.78;100.00
49945;BME280;35838;49.134;9.212;2023-05-01T04:03:42;99740.91;;;10.76;100.00
49945;BME280;35838;49.134;9.212;2023-05-01T04:05:16;99739.19;;;10.75;100.00
49945;BME280;35838;49.134;9.212;2023-05-01T04:06:51;99744.38;;;10.73;100.00
49945;BME280;35838;49.134;9.212;2023-05-01T04:08:22;99741.75;;;10.78;100.00
49945;BME280;35838;49.134;9.212;2023-05-01T04:09:56;99736.50;;;10.86;100.00
49945;BME280;35838;49.134;9.212;2023-05-01T04:11:27;99734.78;;;10.86;100.00
49945;BME280;35838;49.134;9.212;2023-05-01T04:13:00;99743.44;;;10.85;100.00
49945;BME280;35838;49.134;9.212;2023-05-01T04:14:31;99733.94;;;10.81;100.00
49945;BME280;35838;49.134;9.212;2023-05-01T04:16:08;99736.59;;;10.72;100.00
49945;BME280;35838;49.134;9.212;2023-05-01T04:17:41;99741.75;;;10.76;100.00
49945;BME280;35838;49.134;9.212;2023-05-01T04:19:16;99727.91;;;10.79;100.00
49945;BME280;35838;49.134;9.212;2023-05-01T04:20:47;99733.03;;;10.88;100.00
49945;BME280;35838;49.134;9.212;2023-05-01T04:22:20;99738.19;;;10.91;100.00
49945;BME280;35838;49.134;9.212;2023-05-01T04:23:54;99738.13;;;10.97;100.00
49945;BME280;35838;49.134;9.212;2023-05-01T04:25:28;99738.09;;;11.04;100.00
49945;BME280;35838;49.134;9.212;2023-05-01T04:27:01;99738.06;;;11.08;100.00
49945;BME280;35838;49.134;9.212;2023-05-01T04:28:32;99729.38;;;11.08;100.00
49945;BME280;35838;49.134;9.212;2023-05-01T04:30:06;99727.78;;;10.94;100.00
49945;BME280;35838;49.134;9.212;2023-05-01T04:31:43;99729.59;;;10.83;100.00
49945;BME280;35838;49.134;9.212;2023-05-01T04:33:16;99722.66;;;10.88;100.00
49945;BME280;35838;49.134;9.212;2023-05-01T04:34:50;99726.91;;;10.92;100.00
49945;BME280;35838;49.134;9.212;2023-05-01T04:36:24;99722.59;;;10.94;100.00
49945;BME280;35838;49.134;9.212;2023-05-01T04:37:57;99716.50;;;10.94;100.00
49945;BME280;35838;49.134;9.212;2023-05-01T04:39:31;99723.38;;;11.00;100.00
49945;BME280;35838;49.134;9.212;2023-05-01T04:41:04;99722.59;;;10.91;100.00
49945;BME280;35838;49.134;9.212;2023-05-01T04:42:38;99725.19;;;10.93;100.00
49945;BME280;35838;49.134;9.212;2023-05-01T04:44:12;99729.44;;;11.05;100.00
49945;BME280;35838;49.134;9.212;2023-05-01T04:45:43;99731.16;;;11.06;100.00
49945;BME280;35838;49.134;9.212;2023-05-01T04:47:19;99723.31;;;11.10;100.00
49945;BME280;35838;49.134;9.212;2023-05-01T04:48:52;99726.75;;;11.14;100.00
49945;BME280;35838;49.134;9.212;2023-05-01T04:50:26;99732.81;;;11.13;100.00
49945;BME280;35838;49.134;9.212;2023-05-01T04:52:00;99729.28;;;11.17;100.00
49945;BME280;35838;49.134;9.212;2023-05-01T04:53:33;99732.78;;;11.15;100.00
49945;BME280;35838;49.134;9.212;2023-05-01T04:55:07;99731.94;;;11.12;100.00
49945;BME280;35838;49.134;9.212;2023-05-01T04:56:39;99727.53;;;11.21;100.00
49945;BME280;35838;49.134;9.212;2023-05-01T04:58:12;99717.97;;;11.26;100.00
49945;BME280;35838;49.134;9.212;2023-05-01T04:59:46;99721.44;;;11.25;100.00
49945;BME280;35838;49.134;9.212;2023-05-01T05:01:20;99722.31;;;11.24;100.00
49945;BME280;35838;49.134;9.212;2023-05-01T05:02:53;99723.19;;;11.20;100.00
49945;BME280;35838;49.134;9.212;2023-05-01T05:04:27;99725.91;;;11.12;100.00
49945;BME280;35838;49.134;9.212;2023-05-01T05:06:00;99723.19;;;11.23;100.00
49945;BME280;35838;49.134;9.212;2023-05-01T05:07:31;99726.63;;;11.25;100.00
49945;BME280;35838;49.134;9.212;2023-05-01T05:09:05;99734.47;;;11.20;100.00
49945;BME280;35838;49.134;9.212;2023-05-01T05:10:39;99735.28;;;11.25;100.00
49945;BME280;35838;49.134;9.212;2023-05-01T05:12:12;99723.19;;;11.20;100.00
49945;BME280;35838;49.134;9.212;2023-05-01T05:13:46;99720.63;;;11.21;100.00
49945;BME280;35838;49.134;9.212;2023-05-01T05:15:20;99722.50;;;11.04;100.00
49945;BME280;35838;49.134;9.212;2023-05-01T05:16:54;99726.81;;;11.05;100.00
49945;BME280;35838;49.134;9.212;2023-05-01T05:18:30;99720.75;;;11.06;100.00
49945;BME280;35838;49.134;9.212;2023-05-01T05:20:04;99725.97;;;11.06;100.00
49945;BME280;35838;49.134;9.212;2023-05-01T05:21:38;99726.81;;;11.06;100.00
49945;BME280;35838;49.134;9.212;2023-05-01T05:23:11;99723.34;;;11.07;100.00
49945;BME280;35838;49.134;9.212;2023-05-01T05:24:42;99728.56;;;11.06;100.00
49945;BME280;35838;49.134;9.212;2023-05-01T05:26:16;99726.78;;;11.08;100.00
49945;BME280;35838;49.134;9.212;2023-05-01T05:27:50;99725.91;;;11.10;100.00
49945;BME280;35838;49.134;9.212;2023-05-01T05:29:24;99722.34;;;11.22;100.00
49945;BME280;35838;49.134;9.212;2023-05-01T05:30:57;99727.47;;;11.25;100.00
49945;BME280;35838;49.134;9.212;2023-05-01T05:32:28;99732.66;;;11.28;100.00
49945;BME280;35838;49.134;9.212;2023-05-01T05:34:04;99730.91;;;11.31;100.00
49945;BME280;35838;49.134;9.212;2023-05-01T05:35:38;99726.56;;;11.31;100.00
49945;BME280;35838;49.134;9.212;2023-05-01T05:37:09;99727.38;;;11.38;100.00
49945;BME280;35838;49.134;9.212;2023-05-01T05:38:43;99725.56;;;11.43;100.00
49945;BME280;35838;49.134;9.212;2023-05-01T05:40:17;99715.19;;;11.43;100.00
49945;BME280;35838;49.134;9.212;2023-05-01T05:41:50;99720.34;;;11.46;100.00
49945;BME280;35838;49.134;9.212;2023-05-01T05:43:24;99722.97;;;11.43;100.00
49945;BME280;35838;49.134;9.212;2023-05-01T05:44:55;99716.88;;;11.47;100.00
49945;BME280;35838;49.134;9.212;2023-05-01T05:46:29;99718.53;;;11.54;100.00
49945;BME280;35838;49.134;9.212;2023-05-01T05:48:03;99715.13;;;11.51;100.00
49945;BME280;35838;49.134;9.212;2023-05-01T05:49:39;99717.63;;;11.58;100.00
49945;BME280;35838;49.134;9.212;2023-05-01T05:51:13;99714.97;;;11.62;100.00
49945;BME280;35838;49.134;9.212;2023-05-01T05:52:46;99711.53;;;11.59;100.00
49945;BME280;35838;49.134;9.212;2023-05-01T05:54:20;99709.81;;;11.60;100.00
49945;BME280;35838;49.134;9.212;2023-05-01T05:55:54;99713.25;;;11.62;100.00
49945;BME280;35838;49.134;9.212;2023-05-01T05:57:27;99708.84;;;11.67;100.00
49945;BME280;35838;49.134;9.212;2023-05-01T05:59:01;99709.66;;;11.74;100.00
49945;BME280;35838;49.134;9.212;2023-05-01T06:00:36;99714.81;;;11.75;100.00
49945;BME280;35838;49.134;9.212;2023-05-01T06:02:09;99713.16;;;11.70;100.00
49945;BME280;35838;49.134;9.212;2023-05-01T06:03:43;99714.88;;;11.71;100.00
49945;BME280;35838;49.134;9.212;2023-05-01T06:05:19;99709.78;;;11.62;100.00
49945;BME280;35838;49.134;9.212;2023-05-01T06:06:53;99712.34;;;11.68;100.00
49945;BME280;35838;49.134;9.212;2023-05-01T06:08:27;99709.75;;;11.68;100.00
49945;BME280;35838;49.134;9.212;2023-05-01T06:09:58;99711.69;;;11.47;100.00
49945;BME280;35838;49.134;9.212;2023-05-01T06:11:34;99710.09;;;11.34;100.00
49945;BME280;35838;49.134;9.212;2023-05-01T06:13:08;99716.97;;;11.41;100.00
49945;BME280;35838;49.134;9.212;2023-05-01T06:14:43;99715.22;;;11.40;100.00
49945;BME280;35838;49.134;9.212;2023-05-01T06:16:16;99711.03;;;11.28;100.00
49945;BME280;35838;49.134;9.212;2023-05-01T06:17:50;99712.88;;;11.17;100.00
49945;BME280;35838;49.134;9.212;2023-05-01T06:19:21;99720.63;;;11.21;100.00
49945;BME280;35838;49.134;9.212;2023-05-01T06:20:57;99716.28;;;11.20;100.00
49945;BME280;35838;49.134;9.212;2023-05-01T06:22:31;99715.28;;;11.34;100.00
49945;BME280;35838;49.134;9.212;2023-05-01T06:24:02;99715.31;;;11.32;100.00
49945;BME280;35838;49.134;9.212;2023-05-01T06:25:36;99709.16;;;11.39;100.00
49945;BME280;35838;49.134;9.212;2023-05-01T06:27:10;99711.75;;;11.39;100.00
49945;BME280;35838;49.134;9.212;2023-05-01T06:28:43;99717.75;;;11.49;100.00
49945;BME280;35838;49.134;9.212;2023-05-01T06:30:17;99716.88;;;11.50;100.00
49945;BME280;35838;49.134;9.212;2023-05-01T06:31:51;99717.00;;;11.36;100.00
49945;BME280;35838;49.134;9.212;2023-05-01T06:33:25;99725.75;;;11.27;100.00
49945;BME280;35838;49.134;9.212;2023-05-01T06:34:59;99713.47;;;11.40;100.00
49945;BME280;35838;49.134;9.212;2023-05-01T06:36:35;99717.72;;;11.51;100.00
49945;BME280;35838;49.134;9.212;2023-05-01T06:38:06;99716.78;;;11.56;100.00
49945;BME280;35838;49.134;9.212;2023-05-01T06:39:39;99720.16;;;11.65;100.00
49945;BME280;35838;49.134;9.212;2023-05-01T06:41:13;99722.66;;;11.74;100.00
49945;BME280;35838;49.134;9.212;2023-05-01T06:42:47;99722.53;;;11.82;100.00
49945;BME280;35838;49.134;9.212;2023-05-01T06:44:20;99721.63;;;11.87;100.00
49945;BME280;35838;49.134;9.212;2023-05-01T06:45:54;99718.09;;;11.91;100.00
49945;BME280;35838;49.134;9.212;2023-05-01T06:47:28;99721.41;;;12.06;100.00
49945;BME280;35838;49.134;9.212;2023-05-01T06:49:01;99716.19;;;12.09;100.00
49945;BME280;35838;49.134;9.212;2023-05-01T06:50:36;99724.78;;;12.14;100.00
49945;BME280;35838;49.134;9.212;2023-05-01T06:52:12;99722.16;;;12.16;100.00
49945;BME280;35838;49.134;9.212;2023-05-01T06:53:46;99722.13;;;12.19;100.00
49945;BME280;35838;49.134;9.212;2023-05-01T06:55:19;99722.91;;;12.26;100.00
49945;BME280;35838;49.134;9.212;2023-05-01T06:56:53;99726.38;;;12.25;100.00
49945;BME280;35838;49.134;9.212;2023-05-01T06:58:27;99721.06;;;12.31;100.00
49945;BME280;35838;49.134;9.212;2023-05-01T06:59:58;99714.19;;;12.28;100.00
49945;BME280;35838;49.134;9.212;2023-05-01T07:01:31;99725.38;;;12.35;100.00
49945;BME280;35838;49.134;9.212;2023-05-01T07:03:05;99727.06;;;12.37;100.00
49945;BME280;35838;49.134;9.212;2023-05-01T07:04:39;99733.16;;;12.38;100.00
49945;BME280;35838;49.134;9.212;2023-05-01T07:06:13;99726.97;;;12.45;100.00
49945;BME280;35838;49.134;9.212;2023-05-01T07:07:50;99726.88;;;12.51;100.00
49945;BME280;35838;49.134;9.212;2023-05-01T07:09:23;99730.31;;;12.53;100.00
49945;BME280;35838;49.134;9.212;2023-05-01T07:10:57;99728.47;;;12.59;100.00
49945;BME280;35838;49.134;9.212;2023-05-01T07:12:30;99725.84;;;12.62;100.00
49945;BME280;35838;49.134;9.212;2023-05-01T07:14:04;99728.41;;;12.65;100.00
49945;BME280;35838;49.134;9.212;2023-05-01T07:15:38;99720.59;;;12.65;100.00
49945;BME280;35838;49.134;9.212;2023-05-01T07:17:11;99727.44;;;12.70;100.00
49945;BME280;35838;49.134;9.212;2023-05-01T07:18:45;99727.50;;;12.66;100.00
49945;BME280;35838;49.134;9.212;2023-05-01T07:20:18;99728.31;;;12.71;100.00
49945;BME280;35838;49.134;9.212;2023-05-01T07:21:52;99727.47;;;12.69;100.00
49945;BME280;35838;49.134;9.212;2023-05-01T07:23:28;99726.41;;;12.82;100.00
49945;BME280;35838;49.134;9.212;2023-05-01T07:25:02;99724.63;;;12.84;100.00
49945;BME280;35838;49.134;9.212;2023-05-01T07:26:35;99725.53;;;12.82;100.00
49945;BME280;35838;49.134;9.212;2023-05-01T07:28:09;99724.53;;;12.89;100.00
49945;BME280;35838;49.134;9.212;2023-05-01T07:29:43;99732.38;;;12.88;100.00
49945;BME280;35838;49.134;9.212;2023-05-01T07:31:16;99726.19;;;12.95;100.00
49945;BME280;35838;49.134;9.212;2023-05-01T07:32:50;99725.53;;;12.82;100.00
49945;BME280;35838;49.134;9.212;2023-05-01T07:34:24;99727.06;;;12.94;100.00
49945;BME280;35838;49.134;9.212;2023-05-01T07:35:57;99719.16;;;13.00;100.00
49945;BME280;35838;49.134;9.212;2023-05-01T07:37:31;99719.97;;;13.02;100.00
49945;BME280;35838;49.134;9.212;2023-05-01T07:39:07;99721.69;;;13.03;100.00
49945;BME280;35838;49.134;9.212;2023-05-01T07:40:41;99715.72;;;12.96;100.00
49945;BME280;35838;49.134;9.212;2023-05-01T07:42:15;99721.06;;;12.90;100.00
49945;BME280;35838;49.134;9.212;2023-05-01T07:43:48;99715.81;;;12.92;100.00
49945;BME280;35838;49.134;9.212;2023-05-01T07:45:22;99720.06;;;12.99;100.00
49945;BME280;35838;49.134;9.212;2023-05-01T07:47:01;99713.03;;;13.01;100.00
49945;BME280;35838;49.134;9.212;2023-05-01T07:48:35;99708.84;;;12.94;100.00
49945;BME280;35838;49.134;9.212;2023-05-01T07:50:09;99711.34;;;13.00;100.00
49945;BME280;35838;49.134;9.212;2023-05-01T07:51:42;99711.34;;;13.00;100.00
49945;BME280;35838;49.134;9.212;2023-05-01T07:53:16;99707.00;;;13.00;100.00
49945;BME280;35838;49.134;9.212;2023-05-01T07:54:52;99711.16;;;13.09;100.00
49945;BME280;35838;49.134;9.212;2023-05-01T07:56:26;99716.28;;;13.15;100.00
49945;BME280;35838;49.134;9.212;2023-05-01T07:58:00;99711.00;;;13.19;100.00
49945;BME280;35838;49.134;9.212;2023-05-01T07:59:33;99710.03;;;13.26;100.00
49945;BME280;35838;49.134;9.212;2023-05-01T08:01:07;99712.50;;;13.32;100.00
49945;BME280;35838;49.134;9.212;2023-05-01T08:04:24;99709.06;;;13.30;100.00
49945;BME280;35838;49.134;9.212;2023-05-01T08:05:57;99715.50;;;13.10;100.00
49945;BME280;35838;49.134;9.212;2023-05-01T08:07:31;99709.41;;;13.11;100.00
49945;BME280;35838;49.134;9.212;2023-05-01T08:09:05;99716.38;;;13.09;100.00
49945;BME280;35838;49.134;9.212;2023-05-01T08:10:41;99713.69;;;13.14;100.00
49945;BME280;35838;49.134;9.212;2023-05-01T08:12:15;99713.00;;;13.04;100.00
49945;BME280;35838;49.134;9.212;2023-05-01T08:13:49;99711.25;;;13.06;100.00
49945;BME280;35838;49.134;9.212;2023-05-01T08:15:22;99711.28;;;13.03;100.00
49945;BME280;35838;49.134;9.212;2023-05-01T08:16:56;99716.38;;;13.09;100.00
49945;BME280;35838;49.134;9.212;2023-05-01T08:18:30;99706.75;;;13.14;100.00
49945;BME280;35838;49.134;9.212;2023-05-01T08:20:04;99705.75;;;13.22;100.00
49945;BME280;35838;49.134;9.212;2023-05-01T08:21:38;99705.69;;;13.25;100.00
49945;BME280;35838;49.134;9.212;2023-05-01T08:23:11;99704.78;;;13.27;100.00
49945;BME280;35838;49.134;9.212;2023-05-01T08:24:45;99703.88;;;13.30;100.00
49945;BME280;35838;49.134;9.212;2023-05-01T08:26:21;99700.31;;;13.34;100.00
49945;BME280;35838;49.134;9.212;2023-05-01T08:27:55;99697.66;;;13.39;100.00
49945;BME280;35838;49.134;9.212;2023-05-01T08:29:29;99695.84;;;13.42;100.00
49945;BME280;35838;49.134;9.212;2023-05-01T08:31:02;99695.88;;;13.41;100.00
49945;BME280;35838;49.134;9.212;2023-05-01T08:32:36;99694.13;;;13.41;100.00
49945;BME280;35838;49.134;9.212;2023-05-01T08:34:10;99701.97;;;13.38;100.00